Olesnica, Poland
Current Conditions -  °F | °C
As of 1:00 PM on Friday 24 Oct 2014 (Local Time) from EPWR Reporting Station
Overcast Overcast  
Wind Chill: 40°   Ceiling: 900
Heat Index: 43°   Visibility: 4mi
Dew Point: 39°   Wind: 5mph
Humidity: 87%   Direction: 60°ENE
Pressure: 30.3"   Gusts: NA
Location:  51.21°N, 17.38°E
Report Text: EPWR 241100Z 06004KT 020V110 7000 BKN009 OVC012 06/04 Q1026
Loading
Personal Weather Stations






























Interactive Weather Map
Tropical Storm Tracking
New forecast layout! Learn more

10-Day Weather Forecast

Advertisements
Track Severe Weather on mobile